sensor_id;sensor_type;location;lat;lon;timestamp;P1;durP1;ratioP1;P2;durP2;ratioP2
56810;SDS011;42691;47.234;27.494;2022-12-18T00:01:57;26.45;;;23.58;;
56810;SDS011;42691;47.234;27.494;2022-12-18T00:04:27;26.77;;;21.17;;
56810;SDS011;42691;47.234;27.494;2022-12-18T00:06:53;28.48;;;24.98;;
56810;SDS011;42691;47.234;27.494;2022-12-18T00:09:19;27.75;;;24.73;;
56810;SDS011;42691;47.234;27.494;2022-12-18T00:11:45;27.58;;;23.17;;
56810;SDS011;42691;47.234;27.494;2022-12-18T00:14:11;28.40;;;24.08;;
56810;SDS011;42691;47.234;27.494;2022-12-18T00:16:37;36.63;;;26.58;;
56810;SDS011;42691;47.234;27.494;2022-12-18T00:19:03;32.50;;;23.13;;
56810;SDS011;42691;47.234;27.494;2022-12-18T00:21:31;24.10;;;21.60;;
56810;SDS011;42691;47.234;27.494;2022-12-18T00:23:57;25.25;;;22.60;;
56810;SDS011;42691;47.234;27.494;2022-12-18T00:26:25;30.63;;;22.20;;
56810;SDS011;42691;47.234;27.494;2022-12-18T00:28:52;22.52;;;19.00;;
56810;SDS011;42691;47.234;27.494;2022-12-18T00:31:20;25.17;;;20.08;;
56810;SDS011;42691;47.234;27.494;2022-12-18T00:33:46;22.10;;;19.42;;
56810;SDS011;42691;47.234;27.494;2022-12-18T00:36:14;26.80;;;18.65;;
56810;SDS011;42691;47.234;27.494;2022-12-18T00:38:42;21.98;;;19.67;;
56810;SDS011;42691;47.234;27.494;2022-12-18T00:41:08;25.00;;;18.30;;
56810;SDS011;42691;47.234;27.494;2022-12-18T00:43:35;28.73;;;21.95;;
56810;SDS011;42691;47.234;27.494;2022-12-18T00:46:01;26.75;;;19.65;;
56810;SDS011;42691;47.234;27.494;2022-12-18T00:48:26;24.73;;;21.05;;
56810;SDS011;42691;47.234;27.494;2022-12-18T00:50:52;26.40;;;20.95;;
56810;SDS011;42691;47.234;27.494;2022-12-18T00:53:17;26.98;;;19.00;;
56810;SDS011;42691;47.234;27.494;2022-12-18T00:55:43;23.15;;;16.58;;
56810;SDS011;42691;47.234;27.494;2022-12-18T00:58:10;25.05;;;19.13;;
56810;SDS011;42691;47.234;27.494;2022-12-18T01:00:36;22.85;;;19.08;;
56810;SDS011;42691;47.234;27.494;2022-12-18T01:03:02;28.48;;;20.40;;
56810;SDS011;42691;47.234;27.494;2022-12-18T01:05:29;24.45;;;20.70;;
56810;SDS011;42691;47.234;27.494;2022-12-18T01:07:55;24.75;;;16.88;;
56810;SDS011;42691;47.234;27.494;2022-12-18T01:10:20;23.17;;;19.10;;
56810;SDS011;42691;47.234;27.494;2022-12-18T01:12:46;21.17;;;18.95;;
56810;SDS011;42691;47.234;27.494;2022-12-18T01:15:12;26.02;;;21.65;;
56810;SDS011;42691;47.234;27.494;2022-12-18T01:17:38;24.83;;;20.90;;
56810;SDS011;42691;47.234;27.494;2022-12-18T01:20:04;23.77;;;19.67;;
56810;SDS011;42691;47.234;27.494;2022-12-18T01:22:30;20.67;;;17.88;;
56810;SDS011;42691;47.234;27.494;2022-12-18T01:24:56;22.67;;;19.75;;
56810;SDS011;42691;47.234;27.494;2022-12-18T01:27:21;23.95;;;21.10;;
56810;SDS011;42691;47.234;27.494;2022-12-18T01:29:46;20.05;;;17.55;;
56810;SDS011;42691;47.234;27.494;2022-12-18T01:32:12;25.42;;;19.15;;
56810;SDS011;42691;47.234;27.494;2022-12-18T01:34:37;22.15;;;18.98;;
56810;SDS011;42691;47.234;27.494;2022-12-18T01:37:04;22.40;;;19.80;;
56810;SDS011;42691;47.234;27.494;2022-12-18T01:39:29;25.25;;;20.80;;
56810;SDS011;42691;47.234;27.494;2022-12-18T01:41:56;24.17;;;20.33;;
56810;SDS011;42691;47.234;27.494;2022-12-18T01:47:40;24.90;;;19.00;;
56810;SDS011;42691;47.234;27.494;2022-12-18T01:50:12;23.33;;;20.67;;
56810;SDS011;42691;47.234;27.494;2022-12-18T01:52:55;21.13;;;18.20;;
56810;SDS011;42691;47.234;27.494;2022-12-18T01:55:26;22.52;;;20.10;;
56810;SDS011;42691;47.234;27.494;2022-12-18T01:57:55;26.65;;;18.08;;
56810;SDS011;42691;47.234;27.494;2022-12-18T02:00:23;25.13;;;18.98;;
56810;SDS011;42691;47.234;27.494;2022-12-18T02:02:49;29.63;;;23.02;;
56810;SDS011;42691;47.234;27.494;2022-12-18T02:05:16;21.75;;;19.42;;
56810;SDS011;42691;47.234;27.494;2022-12-18T02:13:10;29.55;;;22.67;;
56810;SDS011;42691;47.234;27.494;2022-12-18T02:15:48;23.42;;;20.63;;
56810;SDS011;42691;47.234;27.494;2022-12-18T02:18:27;21.83;;;17.25;;
56810;SDS011;42691;47.234;27.494;2022-12-18T02:26:30;23.33;;;18.65;;
56810;SDS011;42691;47.234;27.494;2022-12-18T02:29:13;24.38;;;21.65;;
56810;SDS011;42691;47.234;27.494;2022-12-18T02:31:43;23.63;;;19.88;;
56810;SDS011;42691;47.234;27.494;2022-12-18T02:34:14;24.50;;;21.48;;
56810;SDS011;42691;47.234;27.494;2022-12-18T02:36:41;29.60;;;24.35;;
56810;SDS011;42691;47.234;27.494;2022-12-18T02:39:10;27.58;;;22.65;;
56810;SDS011;42691;47.234;27.494;2022-12-18T02:41:38;44.30;;;22.17;;
56810;SDS011;42691;47.234;27.494;2022-12-18T02:44:11;30.17;;;21.52;;
56810;SDS011;42691;47.234;27.494;2022-12-18T02:47:12;27.13;;;23.40;;
56810;SDS011;42691;47.234;27.494;2022-12-18T02:49:40;29.83;;;24.90;;
56810;SDS011;42691;47.234;27.494;2022-12-18T03:03:11;37.45;;;26.05;;
56810;SDS011;42691;47.234;27.494;2022-12-18T03:05:43;24.25;;;21.77;;
56810;SDS011;42691;47.234;27.494;2022-12-18T03:08:42;32.92;;;26.15;;
56810;SDS011;42691;47.234;27.494;2022-12-18T03:11:13;31.35;;;22.05;;
56810;SDS011;42691;47.234;27.494;2022-12-18T03:16:11;27.15;;;24.25;;
56810;SDS011;42691;47.234;27.494;2022-12-18T03:18:42;28.15;;;24.13;;
56810;SDS011;42691;47.234;27.494;2022-12-18T03:21:29;30.65;;;23.90;;
56810;SDS011;42691;47.234;27.494;2022-12-18T03:24:02;28.20;;;23.45;;
56810;SDS011;42691;47.234;27.494;2022-12-18T03:26:32;30.15;;;23.52;;
56810;SDS011;42691;47.234;27.494;2022-12-18T03:29:02;32.45;;;25.10;;
56810;SDS011;42691;47.234;27.494;2022-12-18T03:31:31;24.38;;;20.15;;
56810;SDS011;42691;47.234;27.494;2022-12-18T03:33:58;24.58;;;21.98;;
56810;SDS011;42691;47.234;27.494;2022-12-18T03:36:27;26.13;;;22.42;;
56810;SDS011;42691;47.234;27.494;2022-12-18T03:38:53;27.60;;;24.63;;
56810;SDS011;42691;47.234;27.494;2022-12-18T03:44:11;28.60;;;24.27;;
56810;SDS011;42691;47.234;27.494;2022-12-18T03:52:07;27.23;;;24.40;;
56810;SDS011;42691;47.234;27.494;2022-12-18T03:54:36;24.38;;;21.77;;
56810;SDS011;42691;47.234;27.494;2022-12-18T03:57:09;27.35;;;23.15;;
56810;SDS011;42691;47.234;27.494;2022-12-18T03:59:38;32.33;;;23.65;;
56810;SDS011;42691;47.234;27.494;2022-12-18T04:02:06;33.67;;;23.33;;
56810;SDS011;42691;47.234;27.494;2022-12-18T04:04:34;29.67;;;24.80;;
56810;SDS011;42691;47.234;27.494;2022-12-18T04:07:02;31.67;;;22.25;;
56810;SDS011;42691;47.234;27.494;2022-12-18T04:09:29;32.15;;;26.25;;
56810;SDS011;42691;47.234;27.494;2022-12-18T04:11:57;33.53;;;24.90;;
56810;SDS011;42691;47.234;27.494;2022-12-18T04:14:22;27.80;;;24.70;;
56810;SDS011;42691;47.234;27.494;2022-12-18T04:16:47;33.05;;;27.50;;
56810;SDS011;42691;47.234;27.494;2022-12-18T04:19:13;29.65;;;23.48;;
56810;SDS011;42691;47.234;27.494;2022-12-18T04:21:38;26.40;;;23.50;;
56810;SDS011;42691;47.234;27.494;2022-12-18T04:24:04;31.77;;;26.35;;
56810;SDS011;42691;47.234;27.494;2022-12-18T04:26:30;31.45;;;25.40;;
56810;SDS011;42691;47.234;27.494;2022-12-18T04:28:55;34.20;;;26.63;;
56810;SDS011;42691;47.234;27.494;2022-12-18T04:31:21;31.13;;;25.50;;
56810;SDS011;42691;47.234;27.494;2022-12-18T04:33:46;34.42;;;28.17;;
56810;SDS011;42691;47.234;27.494;2022-12-18T04:36:12;32.22;;;23.90;;
56810;SDS011;42691;47.234;27.494;2022-12-18T04:38:37;28.67;;;24.80;;
56810;SDS011;42691;47.234;27.494;2022-12-18T04:41:03;35.35;;;26.63;;
56810;SDS011;42691;47.234;27.494;2022-12-18T04:43:28;29.63;;;25.02;;
56810;SDS011;42691;47.234;27.494;2022-12-18T04:46:00;34.08;;;27.88;;
56810;SDS011;42691;47.234;27.494;2022-12-18T04:48:27;27.67;;;24.38;;
56810;SDS011;42691;47.234;27.494;2022-12-18T04:50:53;32.88;;;27.25;;
56810;SDS011;42691;47.234;27.494;2022-12-18T04:53:18;31.85;;;27.23;;
56810;SDS011;42691;47.234;27.494;2022-12-18T04:55:43;32.07;;;28.03;;
56810;SDS011;42691;47.234;27.494;2022-12-18T04:58:09;27.75;;;22.65;;
56810;SDS011;42691;47.234;27.494;2022-12-18T05:00:34;29.13;;;24.20;;
56810;SDS011;42691;47.234;27.494;2022-12-18T05:03:00;26.60;;;23.58;;
56810;SDS011;42691;47.234;27.494;2022-12-18T05:05:26;32.22;;;26.95;;
56810;SDS011;42691;47.234;27.494;2022-12-18T05:07:52;30.85;;;27.58;;
56810;SDS011;42691;47.234;27.494;2022-12-18T05:10:17;25.80;;;23.13;;
56810;SDS011;42691;47.234;27.494;2022-12-18T05:12:43;31.52;;;27.83;;
56810;SDS011;42691;47.234;27.494;2022-12-18T05:15:26;35.95;;;28.45;;
56810;SDS011;42691;47.234;27.494;2022-12-18T05:17:52;27.98;;;25.23;;
56810;SDS011;42691;47.234;27.494;2022-12-18T05:20:17;34.88;;;28.90;;
56810;SDS011;42691;47.234;27.494;2022-12-18T05:22:43;35.95;;;28.20;;
56810;SDS011;42691;47.234;27.494;2022-12-18T05:25:09;32.55;;;27.67;;
56810;SDS011;42691;47.234;27.494;2022-12-18T05:27:34;36.05;;;28.17;;
56810;SDS011;42691;47.234;27.494;2022-12-18T05:30:00;34.30;;;30.05;;
56810;SDS011;42691;47.234;27.494;2022-12-18T05:32:25;30.90;;;27.80;;
56810;SDS011;42691;47.234;27.494;2022-12-18T05:34:50;31.40;;;28.27;;
56810;SDS011;42691;47.234;27.494;2022-12-18T05:37:16;38.78;;;30.05;;
56810;SDS011;42691;47.234;27.494;2022-12-18T05:39:42;31.63;;;27.77;;
56810;SDS011;42691;47.234;27.494;2022-12-18T05:42:08;34.92;;;27.75;;
56810;SDS011;42691;47.234;27.494;2022-12-18T05:44:33;39.10;;;31.10;;
56810;SDS011;42691;47.234;27.494;2022-12-18T05:46:59;33.45;;;29.17;;
56810;SDS011;42691;47.234;27.494;2022-12-18T05:49:24;36.42;;;32.25;;
56810;SDS011;42691;47.234;27.494;2022-12-18T05:51:50;34.15;;;29.30;;
56810;SDS011;42691;47.234;27.494;2022-12-18T05:54:15;39.90;;;31.33;;
56810;SDS011;42691;47.234;27.494;2022-12-18T05:56:41;37.25;;;29.25;;
56810;SDS011;42691;47.234;27.494;2022-12-18T05:59:06;32.10;;;28.63;;
56810;SDS011;42691;47.234;27.494;2022-12-18T06:01:32;35.67;;;28.60;;
56810;SDS011;42691;47.234;27.494;2022-12-18T06:03:57;38.40;;;30.60;;
56810;SDS011;42691;47.234;27.494;2022-12-18T06:06:23;40.47;;;29.02;;
56810;SDS011;42691;47.234;27.494;2022-12-18T06:08:51;42.45;;;30.13;;
56810;SDS011;42691;47.234;27.494;2022-12-18T06:11:19;44.85;;;31.55;;
56810;SDS011;42691;47.234;27.494;2022-12-18T06:13:46;40.97;;;30.60;;
56810;SDS011;42691;47.234;27.494;2022-12-18T06:16:14;37.25;;;33.10;;
56810;SDS011;42691;47.234;27.494;2022-12-18T06:18:40;35.80;;;28.90;;
56810;SDS011;42691;47.234;27.494;2022-12-18T06:21:05;41.38;;;34.80;;
56810;SDS011;42691;47.234;27.494;2022-12-18T06:23:31;37.42;;;32.90;;
56810;SDS011;42691;47.234;27.494;2022-12-18T06:25:57;37.92;;;31.98;;
56810;SDS011;42691;47.234;27.494;2022-12-18T06:28:22;38.78;;;33.60;;
56810;SDS011;42691;47.234;27.494;2022-12-18T06:30:48;38.28;;;32.22;;
56810;SDS011;42691;47.234;27.494;2022-12-18T06:33:14;43.67;;;30.17;;
56810;SDS011;42691;47.234;27.494;2022-12-18T06:35:41;35.47;;;31.80;;
56810;SDS011;42691;47.234;27.494;2022-12-18T06:38:06;40.38;;;30.38;;
56810;SDS011;42691;47.234;27.494;2022-12-18T06:40:32;47.83;;;31.40;;
56810;SDS011;42691;47.234;27.494;2022-12-18T06:42:58;34.67;;;30.98;;
56810;SDS011;42691;47.234;27.494;2022-12-18T06:45:23;35.15;;;27.38;;
56810;SDS011;42691;47.234;27.494;2022-12-18T06:47:49;30.10;;;26.75;;
56810;SDS011;42691;47.234;27.494;2022-12-18T06:50:15;40.47;;;29.95;;
56810;SDS011;42691;47.234;27.494;2022-12-18T06:52:41;32.63;;;26.23;;
56810;SDS011;42691;47.234;27.494;2022-12-18T06:55:09;40.13;;;28.80;;
56810;SDS011;42691;47.234;27.494;2022-12-18T06:57:35;39.33;;;30.50;;
56810;SDS011;42691;47.234;27.494;2022-12-18T07:00:00;32.60;;;29.13;;
56810;SDS011;42691;47.234;27.494;2022-12-18T07:02:26;30.98;;;27.70;;
56810;SDS011;42691;47.234;27.494;2022-12-18T07:04:51;35.97;;;29.42;;
56810;SDS011;42691;47.234;27.494;2022-12-18T07:07:17;38.45;;;32.35;;
56810;SDS011;42691;47.234;27.494;2022-12-18T07:09:42;42.75;;;29.50;;
56810;SDS011;42691;47.234;27.494;2022-12-18T07:12:08;41.13;;;30.27;;
56810;SDS011;42691;47.234;27.494;2022-12-18T07:14:34;32.65;;;27.23;;
56810;SDS011;42691;47.234;27.494;2022-12-18T07:17:00;32.78;;;28.00;;
56810;SDS011;42691;47.234;27.494;2022-12-18T07:19:25;36.03;;;28.58;;
56810;SDS011;42691;47.234;27.494;2022-12-18T07:21:51;38.03;;;29.20;;
56810;SDS011;42691;47.234;27.494;2022-12-18T07:24:16;34.42;;;29.45;;
56810;SDS011;42691;47.234;27.494;2022-12-18T07:26:42;39.33;;;30.38;;
56810;SDS011;42691;47.234;27.494;2022-12-18T07:29:10;33.03;;;28.55;;
56810;SDS011;42691;47.234;27.494;2022-12-18T07:31:35;39.50;;;32.05;;
56810;SDS011;42691;47.234;27.494;2022-12-18T07:34:01;35.40;;;30.25;;
56810;SDS011;42691;47.234;27.494;2022-12-18T07:36:26;36.30;;;31.15;;
56810;SDS011;42691;47.234;27.494;2022-12-18T07:38:51;40.78;;;33.30;;
56810;SDS011;42691;47.234;27.494;2022-12-18T07:41:17;34.92;;;31.48;;
56810;SDS011;42691;47.234;27.494;2022-12-18T07:43:44;40.28;;;30.83;;
56810;SDS011;42691;47.234;27.494;2022-12-18T07:46:10;36.05;;;31.13;;
56810;SDS011;42691;47.234;27.494;2022-12-18T07:48:38;34.28;;;27.85;;
56810;SDS011;42691;47.234;27.494;2022-12-18T07:51:04;35.00;;;31.23;;
56810;SDS011;42691;47.234;27.494;2022-12-18T07:53:31;40.80;;;30.73;;
56810;SDS011;42691;47.234;27.494;2022-12-18T07:55:58;39.97;;;30.00;;
56810;SDS011;42691;47.234;27.494;2022-12-18T07:58:25;30.55;;;26.45;;
56810;SDS011;42691;47.234;27.494;2022-12-18T08:00:51;39.40;;;30.00;;
56810;SDS011;42691;47.234;27.494;2022-12-18T08:03:17;41.83;;;30.08;;
56810;SDS011;42691;47.234;27.494;2022-12-18T08:05:43;34.65;;;29.55;;
56810;SDS011;42691;47.234;27.494;2022-12-18T08:08:09;37.33;;;30.42;;
56810;SDS011;42691;47.234;27.494;2022-12-18T08:10:35;40.05;;;30.63;;
56810;SDS011;42691;47.234;27.494;2022-12-18T08:13:00;37.42;;;28.77;;
56810;SDS011;42691;47.234;27.494;2022-12-18T08:15:26;40.72;;;33.47;;
56810;SDS011;42691;47.234;27.494;2022-12-18T08:17:51;32.42;;;26.08;;
56810;SDS011;42691;47.234;27.494;2022-12-18T08:20:16;41.78;;;30.13;;
56810;SDS011;42691;47.234;27.494;2022-12-18T08:22:43;31.55;;;28.17;;
56810;SDS011;42691;47.234;27.494;2022-12-18T08:25:09;30.25;;;26.33;;
56810;SDS011;42691;47.234;27.494;2022-12-18T08:27:35;34.03;;;24.27;;
56810;SDS011;42691;47.234;27.494;2022-12-18T08:30:01;30.42;;;26.80;;
56810;SDS011;42691;47.234;27.494;2022-12-18T08:32:27;30.08;;;25.20;;
56810;SDS011;42691;47.234;27.494;2022-12-18T08:34:53;62.20;;;27.38;;
56810;SDS011;42691;47.234;27.494;2022-12-18T08:37:18;33.17;;;24.63;;
56810;SDS011;42691;47.234;27.494;2022-12-18T08:39:44;35.35;;;24.90;;
56810;SDS011;42691;47.234;27.494;2022-12-18T08:42:09;27.83;;;24.25;;
56810;SDS011;42691;47.234;27.494;2022-12-18T08:47:19;43.40;;;24.83;;
56810;SDS011;42691;47.234;27.494;2022-12-18T08:49:45;41.80;;;24.05;;
56810;SDS011;42691;47.234;27.494;2022-12-18T08:52:10;28.27;;;24.40;;
56810;SDS011;42691;47.234;27.494;2022-12-18T08:54:36;32.40;;;23.98;;
56810;SDS011;42691;47.234;27.494;2022-12-18T08:57:01;35.35;;;23.15;;
56810;SDS011;42691;47.234;27.494;2022-12-18T08:59:27;38.60;;;22.58;;
56810;SDS011;42691;47.234;27.494;2022-12-18T09:01:53;29.52;;;20.08;;
56810;SDS011;42691;47.234;27.494;2022-12-18T09:04:19;27.83;;;21.33;;
56810;SDS011;42691;47.234;27.494;2022-12-18T09:06:44;27.33;;;23.10;;
56810;SDS011;42691;47.234;27.494;2022-12-18T09:09:10;31.10;;;22.92;;
56810;SDS011;42691;47.234;27.494;2022-12-18T09:11:36;30.38;;;23.65;;
56810;SDS011;42691;47.234;27.494;2022-12-18T09:14:01;33.00;;;25.67;;
56810;SDS011;42691;47.234;27.494;2022-12-18T09:16:27;33.13;;;27.42;;
56810;SDS011;42691;47.234;27.494;2022-12-18T09:18:57;35.95;;;27.10;;
56810;SDS011;42691;47.234;27.494;2022-12-18T09:21:28;36.03;;;28.73;;
56810;SDS011;42691;47.234;27.494;2022-12-18T09:23:55;40.85;;;30.83;;
56810;SDS011;42691;47.234;27.494;2022-12-18T09:26:21;37.78;;;29.52;;
56810;SDS011;42691;47.234;27.494;2022-12-18T09:28:48;40.83;;;29.77;;
56810;SDS011;42691;47.234;27.494;2022-12-18T09:31:13;35.90;;;29.55;;
56810;SDS011;42691;47.234;27.494;2022-12-18T09:33:40;36.60;;;29.58;;
56810;SDS011;42691;47.234;27.494;2022-12-18T09:36:06;34.03;;;26.77;;
56810;SDS011;42691;47.234;27.494;2022-12-18T09:38:34;41.22;;;31.30;;
56810;SDS011;42691;47.234;27.494;2022-12-18T09:41:00;33.58;;;28.42;;
56810;SDS011;42691;47.234;27.494;2022-12-18T09:43:37;36.33;;;30.58;;
56810;SDS011;42691;47.234;27.494;2022-12-18T09:46:23;38.28;;;31.65;;
56810;SDS011;42691;47.234;27.494;2022-12-18T09:48:54;41.05;;;29.52;;
56810;SDS011;42691;47.234;27.494;2022-12-18T09:51:30;35.90;;;30.05;;
56810;SDS011;42691;47.234;27.494;2022-12-18T09:54:24;37.10;;;30.25;;
56810;SDS011;42691;47.234;27.494;2022-12-18T09:56:50;38.75;;;27.55;;
56810;SDS011;42691;47.234;27.494;2022-12-18T09:59:33;32.67;;;29.23;;
56810;SDS011;42691;47.234;27.494;2022-12-18T10:02:14;45.53;;;32.50;;
56810;SDS011;42691;47.234;27.494;2022-12-18T10:04:39;37.22;;;33.17;;
56810;SDS011;42691;47.234;27.494;2022-12-18T10:07:10;46.22;;;33.22;;
56810;SDS011;42691;47.234;27.494;2022-12-18T10:13:02;40.08;;;36.00;;
56810;SDS011;42691;47.234;27.494;2022-12-18T10:22:13;41.42;;;33.78;;
56810;SDS011;42691;47.234;27.494;2022-12-18T10:27:13;36.78;;;25.70;;
56810;SDS011;42691;47.234;27.494;2022-12-18T10:29:42;30.02;;;24.63;;
56810;SDS011;42691;47.234;27.494;2022-12-18T10:32:12;32.47;;;24.63;;
56810;SDS011;42691;47.234;27.494;2022-12-18T10:34:46;26.25;;;22.25;;
56810;SDS011;42691;47.234;27.494;2022-12-18T10:37:20;30.83;;;24.15;;
56810;SDS011;42691;47.234;27.494;2022-12-18T10:42:43;29.58;;;26.35;;
56810;SDS011;42691;47.234;27.494;2022-12-18T10:45:13;29.35;;;23.25;;
56810;SDS011;42691;47.234;27.494;2022-12-18T10:47:44;29.08;;;24.88;;
56810;SDS011;42691;47.234;27.494;2022-12-18T10:50:28;28.25;;;24.08;;
56810;SDS011;42691;47.234;27.494;2022-12-18T10:52:58;26.63;;;21.58;;
56810;SDS011;42691;47.234;27.494;2022-12-18T10:55:27;28.00;;;21.63;;
56810;SDS011;42691;47.234;27.494;2022-12-18T11:03:45;29.63;;;21.88;;
56810;SDS011;42691;47.234;27.494;2022-12-18T11:06:23;32.20;;;18.40;;
56810;SDS011;42691;47.234;27.494;2022-12-18T11:11:27;31.40;;;19.13;;
56810;SDS011;42691;47.234;27.494;2022-12-18T11:16:51;24.02;;;21.48;;
56810;SDS011;42691;47.234;27.494;2022-12-18T11:22:19;29.20;;;21.50;;
56810;SDS011;42691;47.234;27.494;2022-12-18T11:24:52;35.10;;;22.67;;
56810;SDS011;42691;47.234;27.494;2022-12-18T11:27:21;24.63;;;21.45;;
56810;SDS011;42691;47.234;27.494;2022-12-18T11:29:46;29.35;;;25.88;;
56810;SDS011;42691;47.234;27.494;2022-12-18T11:37:54;32.80;;;26.92;;
56810;SDS011;42691;47.234;27.494;2022-12-18T11:40:33;31.65;;;24.60;;
56810;SDS011;42691;47.234;27.494;2022-12-18T11:45:51;39.53;;;24.48;;
56810;SDS011;42691;47.234;27.494;2022-12-18T11:48:24;28.23;;;24.05;;
56810;SDS011;42691;47.234;27.494;2022-12-18T11:50:56;36.78;;;23.38;;
56810;SDS011;42691;47.234;27.494;2022-12-18T11:53:24;31.20;;;25.80;;
56810;SDS011;42691;47.234;27.494;2022-12-18T11:55:54;31.20;;;24.38;;
56810;SDS011;42691;47.234;27.494;2022-12-18T12:12:27;25.38;;;21.10;;
56810;SDS011;42691;47.234;27.494;2022-12-18T12:20:46;37.42;;;27.35;;
56810;SDS011;42691;47.234;27.494;2022-12-18T12:25:53;43.72;;;30.02;;
56810;SDS011;42691;47.234;27.494;2022-12-18T12:40:06;29.00;;;24.13;;
56810;SDS011;42691;47.234;27.494;2022-12-18T12:42:37;35.10;;;31.02;;
56810;SDS011;42691;47.234;27.494;2022-12-18T12:45:28;32.33;;;28.70;;
56810;SDS011;42691;47.234;27.494;2022-12-18T12:47:59;33.80;;;27.53;;
56810;SDS011;42691;47.234;27.494;2022-12-18T12:50:27;44.22;;;32.60;;
56810;SDS011;42691;47.234;27.494;2022-12-18T12:52:53;184.60;;;45.22;;
56810;SDS011;42691;47.234;27.494;2022-12-18T12:55:22;45.22;;;28.45;;
56810;SDS011;42691;47.234;27.494;2022-12-18T13:00:18;35.42;;;27.77;;
56810;SDS011;42691;47.234;27.494;2022-12-18T13:08:29;31.98;;;20.15;;
56810;SDS011;42691;47.234;27.494;2022-12-18T13:10:57;25.83;;;21.80;;
56810;SDS011;42691;47.234;27.494;2022-12-18T13:16:19;21.88;;;19.35;;
56810;SDS011;42691;47.234;27.494;2022-12-18T13:18:52;38.08;;;22.48;;
56810;SDS011;42691;47.234;27.494;2022-12-18T13:21:23;27.50;;;23.73;;
56810;SDS011;42691;47.234;27.494;2022-12-18T13:23:52;30.35;;;23.52;;
56810;SDS011;42691;47.234;27.494;2022-12-18T13:34:19;34.15;;;22.58;;
56810;SDS011;42691;47.234;27.494;2022-12-18T13:36:46;27.55;;;21.55;;
56810;SDS011;42691;47.234;27.494;2022-12-18T13:41:43;29.17;;;24.48;;
56810;SDS011;42691;47.234;27.494;2022-12-18T13:46:51;29.92;;;23.05;;
56810;SDS011;42691;47.234;27.494;2022-12-18T13:51:49;28.20;;;24.05;;
56810;SDS011;42691;47.234;27.494;2022-12-18T13:54:36;36.00;;;24.58;;
56810;SDS011;42691;47.234;27.494;2022-12-18T13:57:05;32.58;;;26.15;;
56810;SDS011;42691;47.234;27.494;2022-12-18T13:59:50;32.80;;;26.75;;
56810;SDS011;42691;47.234;27.494;2022-12-18T14:02:17;35.30;;;24.27;;
56810;SDS011;42691;47.234;27.494;2022-12-18T14:04:47;41.33;;;27.30;;
56810;SDS011;42691;47.234;27.494;2022-12-18T14:07:14;30.58;;;24.67;;
56810;SDS011;42691;47.234;27.494;2022-12-18T14:10:00;41.33;;;27.98;;
56810;SDS011;42691;47.234;27.494;2022-12-18T14:15:25;34.65;;;29.33;;
56810;SDS011;42691;47.234;27.494;2022-12-18T14:20:40;34.90;;;28.02;;
56810;SDS011;42691;47.234;27.494;2022-12-18T14:26:19;40.28;;;30.38;;
56810;SDS011;42691;47.234;27.494;2022-12-18T14:28:57;39.92;;;26.67;;
56810;SDS011;42691;47.234;27.494;2022-12-18T14:31:26;43.72;;;28.50;;
56810;SDS011;42691;47.234;27.494;2022-12-18T14:33:53;41.35;;;30.95;;
56810;SDS011;42691;47.234;27.494;2022-12-18T14:36:24;36.97;;;28.73;;
56810;SDS011;42691;47.234;27.494;2022-12-18T14:38:51;33.08;;;26.20;;
56810;SDS011;42691;47.234;27.494;2022-12-18T14:41:21;33.75;;;28.98;;
56810;SDS011;42691;47.234;27.494;2022-12-18T14:43:48;34.65;;;28.25;;
56810;SDS011;42691;47.234;27.494;2022-12-18T14:48:57;39.72;;;29.23;;
56810;SDS011;42691;47.234;27.494;2022-12-18T14:51:24;45.08;;;29.40;;
56810;SDS011;42691;47.234;27.494;2022-12-18T14:53:58;42.65;;;31.35;;
56810;SDS011;42691;47.234;27.494;2022-12-18T14:56:30;35.60;;;28.02;;
56810;SDS011;42691;47.234;27.494;2022-12-18T14:58:58;40.80;;;26.77;;
56810;SDS011;42691;47.234;27.494;2022-12-18T15:01:26;34.75;;;27.25;;
56810;SDS011;42691;47.234;27.494;2022-12-18T15:04:04;36.70;;;24.38;;
56810;SDS011;42691;47.234;27.494;2022-12-18T15:06:44;26.48;;;23.58;;
56810;SDS011;42691;47.234;27.494;2022-12-18T15:09:24;39.00;;;28.83;;
56810;SDS011;42691;47.234;27.494;2022-12-18T15:11:55;30.60;;;24.25;;
56810;SDS011;42691;47.234;27.494;2022-12-18T15:14:31;33.92;;;24.90;;
56810;SDS011;42691;47.234;27.494;2022-12-18T15:17:00;38.17;;;26.25;;
56810;SDS011;42691;47.234;27.494;2022-12-18T15:20:01;40.45;;;28.85;;
56810;SDS011;42691;47.234;27.494;2022-12-18T15:24:50;32.65;;;28.65;;
56810;SDS011;42691;47.234;27.494;2022-12-18T15:27:24;40.33;;;32.03;;
56810;SDS011;42691;47.234;27.494;2022-12-18T15:30:00;38.85;;;31.98;;
56810;SDS011;42691;47.234;27.494;2022-12-18T15:37:32;41.20;;;31.65;;
56810;SDS011;42691;47.234;27.494;2022-12-18T15:39:58;31.10;;;27.02;;
56810;SDS011;42691;47.234;27.494;2022-12-18T15:42:23;36.40;;;27.77;;
56810;SDS011;42691;47.234;27.494;2022-12-18T15:45:10;29.20;;;25.27;;
56810;SDS011;42691;47.234;27.494;2022-12-18T15:47:37;27.27;;;20.15;;
56810;SDS011;42691;47.234;27.494;2022-12-18T15:50:03;37.28;;;24.60;;
56810;SDS011;42691;47.234;27.494;2022-12-18T15:52:39;27.45;;;21.38;;
56810;SDS011;42691;47.234;27.494;2022-12-18T15:55:13;31.10;;;19.55;;
56810;SDS011;42691;47.234;27.494;2022-12-18T15:57:59;21.45;;;18.83;;
56810;SDS011;42691;47.234;27.494;2022-12-18T16:00:25;28.00;;;19.85;;
56810;SDS011;42691;47.234;27.494;2022-12-18T16:02:51;27.83;;;19.27;;
56810;SDS011;42691;47.234;27.494;2022-12-18T16:05:17;21.83;;;14.18;;
56810;SDS011;42691;47.234;27.494;2022-12-18T16:07:44;26.23;;;16.02;;
56810;SDS011;42691;47.234;27.494;2022-12-18T16:10:10;22.77;;;17.92;;
56810;SDS011;42691;47.234;27.494;2022-12-18T16:12:36;37.05;;;19.15;;
56810;SDS011;42691;47.234;27.494;2022-12-18T16:15:02;35.85;;;21.92;;
56810;SDS011;42691;47.234;27.494;2022-12-18T16:17:29;24.05;;;21.05;;
56810;SDS011;42691;47.234;27.494;2022-12-18T16:19:54;23.08;;;18.77;;
56810;SDS011;42691;47.234;27.494;2022-12-18T16:22:24;24.60;;;18.50;;
56810;SDS011;42691;47.234;27.494;2022-12-18T16:27:21;31.92;;;21.73;;
56810;SDS011;42691;47.234;27.494;2022-12-18T16:29:47;19.65;;;17.65;;
56810;SDS011;42691;47.234;27.494;2022-12-18T16:32:14;28.73;;;19.17;;
56810;SDS011;42691;47.234;27.494;2022-12-18T16:34:41;27.25;;;20.08;;
56810;SDS011;42691;47.234;27.494;2022-12-18T16:37:08;26.98;;;21.80;;
56810;SDS011;42691;47.234;27.494;2022-12-18T16:39:34;22.05;;;19.73;;
56810;SDS011;42691;47.234;27.494;2022-12-18T16:42:02;22.55;;;20.10;;
56810;SDS011;42691;47.234;27.494;2022-12-18T16:44:30;29.48;;;20.00;;
56810;SDS011;42691;47.234;27.494;2022-12-18T16:46:55;23.90;;;17.95;;
56810;SDS011;42691;47.234;27.494;2022-12-18T16:49:26;23.65;;;17.40;;
56810;SDS011;42691;47.234;27.494;2022-12-18T16:51:52;21.52;;;19.30;;
56810;SDS011;42691;47.234;27.494;2022-12-18T16:54:18;24.95;;;18.40;;
56810;SDS011;42691;47.234;27.494;2022-12-18T16:56:44;29.88;;;18.40;;